RAM666T GMTT-LFPO
Flight info
| Callsign | RAM666T |
|---|---|
| Flight time | N/A |
| Altitude | 38000 |
| Route | NOLRO DCT ADKIM DCT VJF DCT SANJU DCT HIJ Z230 TLD N858 SIE DCT INDEL DCT ETPAR DCT PEPAX DCT CAD |
| Aircraft | B738/M-SDE3FGHIRWY/LB1 |
Departure
| Time | 2026-05-04 17:30 |
|---|---|
| Airport | Tangier Ibn Battuta Airport (GMTT) |
Arrival
| Time | N/A |
|---|---|
| Airport | Paris-Orly Airport (LFPO) |
| Time | Latitude | Longitude | Altitude | Speed | Heading |
|---|---|---|---|---|---|
| 2026-05-04 17:14 | 35.72531 | -5.91347 | 24 ft | 0 kts | 356° |
| 2026-05-04 17:21 | 35.72506 | -5.91345 | 26 ft | 2 kts | 356° |
| 2026-05-04 17:22 | 35.72490 | -5.91343 | 29 ft | 2 kts | 356° |
| 2026-05-04 17:22 | 35.72474 | -5.91342 | 28 ft | 2 kts | 355° |
| 2026-05-04 17:23 | 35.72443 | -5.91307 | 27 ft | 2 kts | 274° |
| 2026-05-04 17:23 | 35.72444 | -5.91290 | 27 ft | 0 kts | 265° |
| 2026-05-04 17:25 | 35.72444 | -5.91291 | 27 ft | 1 kts | 265° |
| 2026-05-04 17:26 | 35.72430 | -5.91491 | 24 ft | 20 kts | 265° |
| 2026-05-04 17:26 | 35.72899 | -5.91718 | 25 ft | 18 kts | 12° |
| 2026-05-04 17:27 | 35.72917 | -5.91372 | 27 ft | 28 kts | 96° |
| 2026-05-04 17:27 | 35.72869 | -5.90815 | 28 ft | 37 kts | 96° |
| 2026-05-04 17:28 | 35.72857 | -5.90215 | 31 ft | 27 kts | 35° |
| 2026-05-04 17:29 | 35.72897 | -5.90197 | 37 ft | 2 kts | 7° |
| 2026-05-04 17:29 | 35.73045 | -5.90814 | 43 ft | 90 kts | 276° |
| 2026-05-04 17:30 | 35.73472 | -5.95323 | 1348 ft | 215 kts | 278° |
| 2026-05-04 17:31 | 35.73814 | -5.98370 | 2844 ft | 232 kts | 277° |
| 2026-05-04 17:31 | 35.76371 | -6.03590 | 5161 ft | 265 kts | 344° |
| 2026-05-04 17:32 | 35.80087 | -6.03361 | 6985 ft | 274 kts | 8° |
| 2026-05-04 17:33 | 35.85881 | -6.02474 | 9594 ft | 285 kts | 5° |
| 2026-05-04 17:33 | 35.87868 | -6.02223 | 10391 ft | 292 kts | 5° |
| 2026-05-04 17:34 | 35.94697 | -6.01357 | 11071 ft | 365 kts | 5° |
| 2026-05-04 17:34 | 35.97299 | -6.01020 | 11258 ft | 386 kts | 5° |
| 2026-05-04 17:35 | 36.05527 | -5.99949 | 13137 ft | 401 kts | 5° |
| 2026-05-04 17:35 | 36.11134 | -5.99222 | 14422 ft | 409 kts | 5° |
| 2026-05-04 17:35 | 36.13976 | -5.98852 | 15037 ft | 413 kts | 5° |
| 2026-05-04 17:36 | 36.16846 | -5.98477 | 15642 ft | 417 kts | 5° |
| 2026-05-04 17:36 | 36.19743 | -5.98099 | 16212 ft | 420 kts | 5° |
| 2026-05-04 17:36 | 36.22665 | -5.97717 | 16751 ft | 424 kts | 5° |
| 2026-05-04 17:36 | 36.25610 | -5.97267 | 17285 ft | 428 kts | 8° |
| 2026-05-04 17:37 | 36.28560 | -5.96660 | 17854 ft | 431 kts | 10° |
| 2026-05-04 17:37 | 36.31507 | -5.95922 | 18386 ft | 434 kts | 12° |
| 2026-05-04 17:37 | 36.34461 | -5.95071 | 18884 ft | 437 kts | 13° |
| 2026-05-04 17:37 | 36.37426 | -5.94139 | 19352 ft | 441 kts | 14° |
| 2026-05-04 17:38 | 36.40411 | -5.93193 | 19807 ft | 445 kts | 13° |
| 2026-05-04 17:38 | 36.43425 | -5.92269 | 20287 ft | 447 kts | 13° |
| 2026-05-04 17:38 | 36.46460 | -5.91378 | 20740 ft | 450 kts | 12° |
| 2026-05-04 17:38 | 36.49481 | -5.90521 | 21149 ft | 453 kts | 12° |
| 2026-05-04 17:39 | 36.55666 | -5.88813 | 21977 ft | 458 kts | 12° |
| 2026-05-04 17:39 | 36.58789 | -5.87957 | 22342 ft | 461 kts | 12° |
| 2026-05-04 17:39 | 36.61930 | -5.87094 | 22709 ft | 463 kts | 12° |
| 2026-05-04 17:40 | 36.65086 | -5.86225 | 23070 ft | 466 kts | 12° |
| 2026-05-04 17:40 | 36.68259 | -5.85347 | 23423 ft | 468 kts | 12° |
| 2026-05-04 17:40 | 36.71444 | -5.84465 | 23764 ft | 470 kts | 12° |
| 2026-05-04 17:40 | 36.74647 | -5.83576 | 24087 ft | 473 kts | 12° |
| 2026-05-04 17:41 | 36.77868 | -5.82682 | 24382 ft | 475 kts | 12° |
| 2026-05-04 17:41 | 36.81105 | -5.81782 | 24697 ft | 477 kts | 12° |
| 2026-05-04 17:41 | 36.84349 | -5.80880 | 24998 ft | 479 kts | 12° |
| 2026-05-04 17:41 | 36.87613 | -5.79971 | 25292 ft | 481 kts | 12° |
| 2026-05-04 17:42 | 36.90892 | -5.79058 | 25557 ft | 484 kts | 12° |
| 2026-05-04 17:42 | 36.94180 | -5.78141 | 25795 ft | 485 kts | 12° |
| 2026-05-04 17:42 | 36.97482 | -5.77219 | 26036 ft | 487 kts | 12° |
| 2026-05-04 17:42 | 37.00791 | -5.76295 | 26278 ft | 487 kts | 12° |
| 2026-05-04 17:43 | 37.04098 | -5.75370 | 26562 ft | 486 kts | 12° |
| 2026-05-04 17:43 | 37.07381 | -5.74378 | 26885 ft | 485 kts | 14° |
| 2026-05-04 17:43 | 37.10629 | -5.73232 | 27184 ft | 485 kts | 16° |
| 2026-05-04 17:43 | 37.13840 | -5.71939 | 27467 ft | 484 kts | 18° |
| 2026-05-04 17:44 | 37.17009 | -5.70519 | 27751 ft | 484 kts | 20° |
| 2026-05-04 17:44 | 37.20149 | -5.68989 | 28039 ft | 484 kts | 21° |
| 2026-05-04 17:44 | 37.23271 | -5.67433 | 28341 ft | 483 kts | 21° |
| 2026-05-04 17:44 | 37.26361 | -5.65924 | 28640 ft | 482 kts | 20° |
| 2026-05-04 17:45 | 37.29500 | -5.64444 | 28933 ft | 481 kts | 20° |
| 2026-05-04 17:45 | 37.32687 | -5.62990 | 29227 ft | 481 kts | 19° |
| 2026-05-04 17:45 | 37.35796 | -5.61603 | 29515 ft | 480 kts | 19° |
| 2026-05-04 17:45 | 37.38946 | -5.60215 | 29807 ft | 480 kts | 19° |
| 2026-05-04 17:46 | 37.42092 | -5.58833 | 30124 ft | 478 kts | 19° |
| 2026-05-04 17:46 | 37.45232 | -5.57453 | 30421 ft | 477 kts | 19° |
| 2026-05-04 17:46 | 37.48365 | -5.56072 | 30691 ft | 477 kts | 19° |
| 2026-05-04 17:46 | 37.51494 | -5.54688 | 30948 ft | 477 kts | 19° |
| 2026-05-04 17:47 | 37.57786 | -5.51895 | 31003 ft | 481 kts | 19° |
| 2026-05-04 17:47 | 37.64116 | -5.49077 | 31004 ft | 483 kts | 19° |
| 2026-05-04 17:48 | 37.70449 | -5.46253 | 31000 ft | 483 kts | 19° |
| 2026-05-04 17:48 | 37.76788 | -5.43422 | 31000 ft | 483 kts | 19° |
| 2026-05-04 17:49 | 37.83128 | -5.40585 | 31001 ft | 484 kts | 19° |
| 2026-05-04 17:49 | 37.89472 | -5.37741 | 31002 ft | 484 kts | 19° |
| 2026-05-04 17:50 | 37.95826 | -5.34888 | 31001 ft | 485 kts | 19° |
| 2026-05-04 17:50 | 38.02178 | -5.32031 | 31001 ft | 483 kts | 19° |
| 2026-05-04 17:51 | 38.08529 | -5.29168 | 31004 ft | 486 kts | 19° |
| 2026-05-04 17:51 | 38.14903 | -5.26290 | 31004 ft | 485 kts | 19° |
| 2026-05-04 17:52 | 38.21280 | -5.23404 | 31004 ft | 487 kts | 19° |
| 2026-05-04 17:52 | 38.27642 | -5.20520 | 31000 ft | 485 kts | 19° |
| 2026-05-04 17:53 | 38.33972 | -5.17646 | 31003 ft | 487 kts | 19° |
| 2026-05-04 17:53 | 38.40354 | -5.14742 | 31000 ft | 487 kts | 19° |
| 2026-05-04 17:54 | 38.46733 | -5.11834 | 31001 ft | 486 kts | 19° |
| 2026-05-04 17:54 | 38.53070 | -5.08852 | 31001 ft | 486 kts | 22° |
| 2026-05-04 17:55 | 38.59268 | -5.05395 | 31001 ft | 485 kts | 24° |
| 2026-05-04 17:55 | 38.65390 | -5.01758 | 31002 ft | 486 kts | 25° |
| 2026-05-04 17:56 | 38.71535 | -4.98155 | 31002 ft | 486 kts | 24° |
| 2026-05-04 17:56 | 38.77693 | -4.94606 | 31001 ft | 486 kts | 24° |
| 2026-05-04 17:57 | 38.83865 | -4.91068 | 31002 ft | 486 kts | 24° |
| 2026-05-04 17:57 | 38.90038 | -4.87524 | 31001 ft | 486 kts | 24° |
| 2026-05-04 17:58 | 38.96208 | -4.83970 | 30999 ft | 486 kts | 24° |
| 2026-05-04 17:58 | 39.02380 | -4.80406 | 31001 ft | 486 kts | 24° |
| 2026-05-04 17:59 | 39.08550 | -4.76836 | 31004 ft | 487 kts | 24° |
| 2026-05-04 18:00 | 39.17812 | -4.71464 | 31002 ft | 486 kts | 24° |
| 2026-05-04 18:00 | 39.23979 | -4.67879 | 31000 ft | 486 kts | 24° |
| 2026-05-04 18:01 | 39.30151 | -4.64284 | 31003 ft | 487 kts | 24° |
| 2026-05-04 18:01 | 39.36318 | -4.60685 | 31001 ft | 487 kts | 24° |
| 2026-05-04 18:02 | 39.45580 | -4.55266 | 31001 ft | 486 kts | 24° |
| 2026-05-04 18:02 | 39.51753 | -4.51646 | 31003 ft | 488 kts | 24° |
| 2026-05-04 18:03 | 39.57935 | -4.48013 | 31000 ft | 489 kts | 24° |
| 2026-05-04 18:03 | 39.64132 | -4.44364 | 31001 ft | 488 kts | 24° |
| 2026-05-04 18:04 | 39.70296 | -4.40728 | 31001 ft | 487 kts | 24° |
| 2026-05-04 18:05 | 39.79542 | -4.35259 | 31001 ft | 486 kts | 24° |
| 2026-05-04 18:05 | 39.85686 | -4.31617 | 31000 ft | 485 kts | 24° |
| 2026-05-04 18:06 | 39.94917 | -4.26130 | 31001 ft | 486 kts | 24° |
| 2026-05-04 18:06 | 40.01072 | -4.22464 | 31001 ft | 486 kts | 24° |
| 2026-05-04 18:07 | 40.07192 | -4.18810 | 31001 ft | 487 kts | 24° |
| 2026-05-04 18:07 | 40.13382 | -4.15107 | 31002 ft | 487 kts | 24° |
| 2026-05-04 18:08 | 40.19498 | -4.11441 | 31001 ft | 487 kts | 24° |
| 2026-05-04 18:08 | 40.25650 | -4.07746 | 31002 ft | 487 kts | 24° |
| 2026-05-04 18:09 | 40.37953 | -4.00335 | 31001 ft | 487 kts | 24° |
| 2026-05-04 18:10 | 40.44104 | -3.96618 | 31002 ft | 487 kts | 24° |
| 2026-05-04 18:10 | 40.50252 | -3.92896 | 31001 ft | 487 kts | 24° |
| 2026-05-04 18:11 | 40.56403 | -3.89164 | 31001 ft | 487 kts | 24° |
| 2026-05-04 18:11 | 40.62556 | -3.85424 | 31001 ft | 487 kts | 25° |
| 2026-05-04 18:12 | 40.68712 | -3.81673 | 31002 ft | 488 kts | 25° |
| 2026-05-04 18:12 | 40.74879 | -3.77909 | 31001 ft | 488 kts | 25° |
| 2026-05-04 18:13 | 40.81046 | -3.74137 | 31001 ft | 489 kts | 25° |
| 2026-05-04 18:14 | 40.90323 | -3.68448 | 31002 ft | 491 kts | 25° |
| 2026-05-04 18:14 | 40.96514 | -3.64642 | 31001 ft | 490 kts | 25° |
| 2026-05-04 18:15 | 41.08820 | -3.57052 | 31002 ft | 490 kts | 25° |
| 2026-05-04 18:16 | 41.15012 | -3.53221 | 30995 ft | 492 kts | 25° |
| 2026-05-04 18:16 | 41.21218 | -3.49374 | 31007 ft | 492 kts | 25° |
| 2026-05-04 18:17 | 41.30498 | -3.43605 | 31002 ft | 491 kts | 25° |
| 2026-05-04 18:18 | 41.39761 | -3.37829 | 31000 ft | 489 kts | 25° |
| 2026-05-04 18:18 | 41.45920 | -3.33978 | 31001 ft | 489 kts | 25° |
| 2026-05-04 18:19 | 41.54112 | -3.28844 | 31002 ft | 489 kts | 25° |
| 2026-05-04 18:19 | 41.60261 | -3.24980 | 31001 ft | 488 kts | 25° |
| 2026-05-04 18:20 | 41.66404 | -3.21113 | 31001 ft | 488 kts | 25° |
| 2026-05-04 18:20 | 41.72545 | -3.17238 | 31002 ft | 488 kts | 25° |
| 2026-05-04 18:21 | 41.78694 | -3.13350 | 31001 ft | 489 kts | 25° |
| 2026-05-04 18:21 | 41.84844 | -3.09453 | 31001 ft | 489 kts | 25° |
| 2026-05-04 18:22 | 41.90999 | -3.05544 | 31001 ft | 490 kts | 25° |
| 2026-05-04 18:22 | 41.97162 | -3.01622 | 31002 ft | 490 kts | 25° |
| 2026-05-04 18:23 | 42.03324 | -2.97693 | 30998 ft | 491 kts | 25° |
| 2026-05-04 18:23 | 42.09501 | -2.93744 | 31003 ft | 491 kts | 25° |
| 2026-05-04 18:24 | 42.15668 | -2.89794 | 31004 ft | 490 kts | 25° |
| 2026-05-04 18:24 | 42.21808 | -2.85853 | 30994 ft | 489 kts | 25° |
| 2026-05-04 18:25 | 42.27960 | -2.81895 | 31004 ft | 490 kts | 25° |
| 2026-05-04 18:25 | 42.34090 | -2.77942 | 31009 ft | 486 kts | 25° |
| 2026-05-04 18:26 | 42.40193 | -2.73998 | 31003 ft | 486 kts | 25° |
| 2026-05-04 18:26 | 42.46288 | -2.70053 | 31001 ft | 485 kts | 25° |
| 2026-05-04 18:27 | 42.52391 | -2.66134 | 31001 ft | 485 kts | 25° |
| 2026-05-04 18:27 | 42.58494 | -2.62229 | 31000 ft | 485 kts | 25° |
| 2026-05-04 18:28 | 42.64566 | -2.58333 | 31003 ft | 487 kts | 25° |
| 2026-05-04 18:28 | 42.70694 | -2.54387 | 31002 ft | 487 kts | 25° |
| 2026-05-04 18:29 | 42.76825 | -2.50427 | 31000 ft | 488 kts | 25° |
| 2026-05-04 18:29 | 42.82957 | -2.46457 | 31002 ft | 487 kts | 25° |
| 2026-05-04 18:30 | 42.92120 | -2.40509 | 31003 ft | 487 kts | 25° |
| 2026-05-04 18:31 | 42.98247 | -2.36522 | 31002 ft | 489 kts | 25° |
| 2026-05-04 18:31 | 43.04369 | -2.32529 | 30999 ft | 485 kts | 25° |
| 2026-05-04 18:32 | 43.10457 | -2.28549 | 31001 ft | 485 kts | 25° |
| 2026-05-04 18:32 | 43.16542 | -2.24562 | 31003 ft | 483 kts | 25° |
| 2026-05-04 18:33 | 43.22614 | -2.20575 | 31003 ft | 485 kts | 25° |
| 2026-05-04 18:33 | 43.28687 | -2.16578 | 31000 ft | 482 kts | 25° |
| 2026-05-04 18:34 | 43.34271 | -2.12896 | 31001 ft | 481 kts | 25° |
| 2026-05-04 18:34 | 43.39808 | -2.09236 | 31001 ft | 480 kts | 25° |
| 2026-05-04 18:35 | 43.45829 | -2.05249 | 31001 ft | 480 kts | 25° |
| 2026-05-04 18:35 | 43.51855 | -2.01250 | 31001 ft | 481 kts | 25° |
| 2026-05-04 18:36 | 43.57879 | -1.97242 | 31001 ft | 481 kts | 25° |
| 2026-05-04 18:36 | 43.63903 | -1.93226 | 31001 ft | 481 kts | 25° |
| 2026-05-04 18:37 | 43.69927 | -1.89201 | 31001 ft | 481 kts | 25° |
| 2026-05-04 18:37 | 43.75952 | -1.85166 | 31001 ft | 481 kts | 25° |
| 2026-05-04 18:38 | 43.81979 | -1.81120 | 31001 ft | 481 kts | 26° |
| 2026-05-04 18:38 | 43.88003 | -1.77069 | 31001 ft | 481 kts | 26° |
| 2026-05-04 18:39 | 43.94025 | -1.73008 | 31001 ft | 481 kts | 26° |
| 2026-05-04 18:39 | 44.00049 | -1.68937 | 31001 ft | 481 kts | 26° |
| 2026-05-04 18:40 | 44.06071 | -1.64859 | 31001 ft | 481 kts | 26° |
| 2026-05-04 18:40 | 44.12051 | -1.60799 | 31001 ft | 481 kts | 26° |
| 2026-05-04 18:41 | 44.18069 | -1.56705 | 31001 ft | 481 kts | 26° |
| 2026-05-04 18:41 | 44.24087 | -1.52601 | 31001 ft | 481 kts | 26° |
| 2026-05-04 18:42 | 44.30102 | -1.48489 | 31001 ft | 481 kts | 26° |
| 2026-05-04 18:42 | 44.36116 | -1.44369 | 31001 ft | 481 kts | 26° |
| 2026-05-04 18:43 | 44.42132 | -1.40238 | 31001 ft | 481 kts | 26° |
| 2026-05-04 18:43 | 44.48143 | -1.36101 | 31001 ft | 482 kts | 26° |
| 2026-05-04 18:44 | 44.54153 | -1.31955 | 31001 ft | 482 kts | 26° |
| 2026-05-04 18:44 | 44.60165 | -1.27798 | 31001 ft | 482 kts | 26° |
| 2026-05-04 18:45 | 44.66172 | -1.23635 | 31002 ft | 482 kts | 26° |
| 2026-05-04 18:45 | 44.72178 | -1.19463 | 31001 ft | 482 kts | 26° |
| 2026-05-04 18:46 | 44.78183 | -1.15282 | 31002 ft | 482 kts | 26° |
| 2026-05-04 18:46 | 44.84192 | -1.11088 | 31001 ft | 482 kts | 26° |
| 2026-05-04 18:47 | 44.90196 | -1.06888 | 31001 ft | 482 kts | 26° |
| 2026-05-04 18:47 | 44.96204 | -1.02674 | 31001 ft | 482 kts | 26° |
| 2026-05-04 18:48 | 45.02207 | -0.98455 | 31001 ft | 482 kts | 26° |
| 2026-05-04 18:48 | 45.08211 | -0.94226 | 31001 ft | 482 kts | 26° |
| 2026-05-04 18:49 | 45.14213 | -0.89986 | 31001 ft | 482 kts | 26° |
| 2026-05-04 18:49 | 45.20219 | -0.85739 | 31001 ft | 482 kts | 26° |
| 2026-05-04 18:50 | 45.26264 | -0.81618 | 31001 ft | 482 kts | 25° |
| 2026-05-04 18:50 | 45.32337 | -0.77571 | 31001 ft | 482 kts | 25° |
| 2026-05-04 18:51 | 45.38402 | -0.73508 | 31001 ft | 482 kts | 25° |
| 2026-05-04 18:51 | 45.44460 | -0.69416 | 31001 ft | 482 kts | 25° |
| 2026-05-04 18:52 | 45.50520 | -0.65304 | 31001 ft | 482 kts | 25° |
| 2026-05-04 18:52 | 45.56573 | -0.61185 | 31001 ft | 482 kts | 25° |
| 2026-05-04 18:53 | 45.62632 | -0.57054 | 31001 ft | 482 kts | 25° |
| 2026-05-04 18:53 | 45.68642 | -0.52947 | 31001 ft | 482 kts | 25° |
| 2026-05-04 18:54 | 45.74692 | -0.48803 | 31001 ft | 482 kts | 25° |
| 2026-05-04 18:54 | 45.80746 | -0.44646 | 31002 ft | 482 kts | 25° |
| 2026-05-04 18:55 | 45.86797 | -0.40480 | 31001 ft | 482 kts | 25° |
| 2026-05-04 18:55 | 45.95866 | -0.34219 | 31001 ft | 482 kts | 25° |
| 2026-05-04 18:56 | 46.01916 | -0.30029 | 31001 ft | 483 kts | 25° |
| 2026-05-04 18:56 | 46.07963 | -0.25831 | 31002 ft | 483 kts | 25° |
| 2026-05-04 18:57 | 46.14011 | -0.21623 | 31001 ft | 483 kts | 25° |
| 2026-05-04 18:57 | 46.20060 | -0.17402 | 31001 ft | 483 kts | 25° |
| 2026-05-04 18:58 | 46.26106 | -0.13174 | 31001 ft | 483 kts | 25° |
| 2026-05-04 18:58 | 46.32154 | -0.08934 | 31002 ft | 483 kts | 26° |
| 2026-05-04 18:59 | 46.38201 | -0.04684 | 31001 ft | 483 kts | 26° |
| 2026-05-04 18:59 | 46.44248 | -0.00424 | 31001 ft | 483 kts | 26° |
| 2026-05-04 19:00 | 46.50297 | 0.03848 | 31002 ft | 483 kts | 26° |
| 2026-05-04 19:00 | 46.56339 | 0.08127 | 31001 ft | 483 kts | 26° |
| 2026-05-04 19:01 | 46.62384 | 0.12417 | 31002 ft | 483 kts | 26° |
| 2026-05-04 19:01 | 46.68423 | 0.16715 | 31001 ft | 483 kts | 26° |
| 2026-05-04 19:02 | 46.74422 | 0.20995 | 31001 ft | 483 kts | 26° |
| 2026-05-04 19:02 | 46.80455 | 0.25310 | 31001 ft | 483 kts | 26° |